createdAt,value
2019-01-25T00:00:52.050Z,55.40
2019-01-25T00:03:21.989Z,52.43
2019-01-25T00:05:51.829Z,49.40
2019-01-25T00:08:21.437Z,51.70
2019-01-25T00:10:51.270Z,51.97
2019-01-25T00:13:20.886Z,53.73
2019-01-25T00:15:50.514Z,55.57
2019-01-25T00:18:20.165Z,48.67
2019-01-25T00:20:50.003Z,52.37
2019-01-25T00:23:19.684Z,53.20
2019-01-25T00:25:49.415Z,59.40
2019-01-25T00:28:19.047Z,56.37
2019-01-25T00:30:48.745Z,57.97
2019-01-25T00:33:18.462Z,57.47
2019-01-25T00:35:48.394Z,56.60
2019-01-25T00:38:18.002Z,60.70
2019-01-25T00:40:47.703Z,59.80
2019-01-25T00:43:17.516Z,60.07
2019-01-25T00:45:47.145Z,55.80
2019-01-25T00:48:16.762Z,64.20
2019-01-25T00:50:46.402Z,57.83
2019-01-25T00:53:16.022Z,58.63
2019-01-25T00:55:45.726Z,52.60
2019-01-25T00:58:15.330Z,58.53
2019-01-25T01:00:44.970Z,62.53
2019-01-25T01:03:14.781Z,57.60
2019-01-25T01:05:44.584Z,56.53
2019-01-25T01:08:14.197Z,61.50
2019-01-25T01:10:43.821Z,64.23
2019-01-25T01:13:13.429Z,63.30
2019-01-25T01:15:43.124Z,57.30
2019-01-25T01:18:12.825Z,60.07
2019-01-25T01:20:43.062Z,61.43
2019-01-25T01:23:13.474Z,58.53
2019-01-25T01:25:43.305Z,65.33
2019-01-25T01:28:13.009Z,56.77
2019-01-25T01:30:42.900Z,60.90
2019-01-25T01:33:12.517Z,58.73
2019-01-25T01:35:42.245Z,70.30
2019-01-25T01:38:11.857Z,59.03
2019-01-25T01:40:41.583Z,63.23
2019-01-25T01:43:11.325Z,62.13
2019-01-25T01:45:41.057Z,67.70
2019-01-25T01:48:10.795Z,68.73
2019-01-25T01:50:40.564Z,64.67
2019-01-25T01:53:10.205Z,60.50
2019-01-25T01:55:39.812Z,60.90
2019-01-25T01:58:09.441Z,60.47
2019-01-25T02:00:39.287Z,59.33
2019-01-25T02:03:08.990Z,59.73
2019-01-25T02:05:38.593Z,61.80
2019-01-25T02:08:08.228Z,60.80
2019-01-25T02:10:37.836Z,58.70
2019-01-25T02:13:07.571Z,61.07
2019-01-25T02:15:38.282Z,62.17
2019-01-25T02:18:07.984Z,65.50
2019-01-25T02:20:37.588Z,57.70
2019-01-25T02:23:07.403Z,55.13
2019-01-25T02:25:37.008Z,52.33
2019-01-25T02:28:07.005Z,52.40
2019-01-25T02:30:36.884Z,59.73
2019-01-25T02:33:06.613Z,56.17
2019-01-25T02:35:36.208Z,53.10
2019-01-25T02:38:05.854Z,57.00
2019-01-25T02:40:38.937Z,53.80
2019-01-25T02:43:06.880Z,55.10
2019-01-25T02:45:36.755Z,58.57
2019-01-25T02:48:07.122Z,54.93
2019-01-25T02:50:36.837Z,51.83
2019-01-25T02:53:06.462Z,47.07
2019-01-25T02:55:36.108Z,52.17
2019-01-25T02:58:06.046Z,49.83
2019-01-25T03:00:35.658Z,55.83
2019-01-25T03:03:05.430Z,47.07
2019-01-25T03:05:35.040Z,53.03
2019-01-25T03:08:05.211Z,49.37
2019-01-25T03:10:34.817Z,50.37
2019-01-25T03:13:04.996Z,52.43
2019-01-25T03:15:34.800Z,53.97
2019-01-25T03:18:04.565Z,51.63
2019-01-25T03:20:34.173Z,48.90
2019-01-25T03:23:03.812Z,52.50
2019-01-25T03:25:33.419Z,52.57
2019-01-25T03:28:03.040Z,47.43
2019-01-25T03:30:32.718Z,56.17
2019-01-25T03:33:02.445Z,51.07
2019-01-25T03:35:32.449Z,49.70
2019-01-25T03:38:02.186Z,48.20
2019-01-25T03:40:31.798Z,47.27
2019-01-25T03:43:01.502Z,48.53
2019-01-25T03:45:31.282Z,47.13
2019-01-25T03:48:00.980Z,57.00
2019-01-25T03:50:30.841Z,47.23
2019-01-25T03:53:00.663Z,52.23
2019-01-25T03:55:30.465Z,50.70
2019-01-25T03:58:00.357Z,51.90
2019-01-25T04:00:30.618Z,50.73
2019-01-25T04:03:00.358Z,48.27
2019-01-25T04:05:30.129Z,51.80
2019-01-25T04:08:00.029Z,51.57
2019-01-25T04:10:30.372Z,51.97
2019-01-25T04:13:00.006Z,51.03
2019-01-25T04:15:31.855Z,45.67
2019-01-25T04:18:01.581Z,46.03
2019-01-25T04:20:31.281Z,54.33
2019-01-25T04:23:00.917Z,53.83
2019-01-25T04:25:30.797Z,61.57
2019-01-25T04:28:00.585Z,57.97
2019-01-25T04:30:32.880Z,89.43
2019-01-25T04:33:02.799Z,85.03
2019-01-25T04:35:32.377Z,67.70
2019-01-25T04:38:02.006Z,52.33
2019-01-25T04:40:31.681Z,51.13
2019-01-25T04:43:01.489Z,50.53
2019-01-25T04:45:31.099Z,48.30
2019-01-25T04:48:00.854Z,49.10
2019-01-25T04:50:30.507Z,45.77
2019-01-25T04:53:00.136Z,45.87
2019-01-25T04:55:31.589Z,51.27
2019-01-25T04:58:07.186Z,47.43
2019-01-25T05:00:36.792Z,50.00
2019-01-25T05:03:06.699Z,47.30
2019-01-25T05:05:36.596Z,46.77
2019-01-25T05:08:16.112Z,49.37
2019-01-25T05:10:46.239Z,56.23
2019-01-25T05:13:15.937Z,52.57
2019-01-25T05:15:45.778Z,53.90
2019-01-25T05:18:15.809Z,49.60
2019-01-25T05:20:45.617Z,52.77
2019-01-25T05:23:15.391Z,53.30
2019-01-25T05:25:45.029Z,46.87
2019-01-25T05:28:16.399Z,46.17
2019-01-25T05:30:54.725Z,51.60
2019-01-25T05:33:25.630Z,46.57
2019-01-25T05:35:55.308Z,56.13
2019-01-25T05:38:25.847Z,53.70
2019-01-25T05:40:55.446Z,51.37
2019-01-25T05:43:25.149Z,54.53
2019-01-25T05:45:54.748Z,58.17
2019-01-25T05:48:28.892Z,52.33
2019-01-25T05:51:00.608Z,45.50
2019-01-25T05:53:30.397Z,53.70
2019-01-25T05:56:00.005Z,52.50
2019-01-25T05:58:29.735Z,47.70
2019-01-25T06:00:59.356Z,49.47
2019-01-25T06:03:29.169Z,46.93
2019-01-25T06:06:02.857Z,46.47
2019-01-25T06:08:33.956Z,52.13
2019-01-25T06:11:05.913Z,49.23
2019-01-25T06:13:35.541Z,53.67
2019-01-25T06:16:05.389Z,51.73
2019-01-25T06:18:35.221Z,51.10
2019-01-25T06:21:05.098Z,51.87
2019-01-25T06:23:34.839Z,50.73
2019-01-25T06:26:05.509Z,53.50
2019-01-25T06:28:35.112Z,45.97
2019-01-25T06:31:05.289Z,47.03
2019-01-25T06:33:34.977Z,51.60
2019-01-25T06:36:05.252Z,50.77
2019-01-25T06:38:35.529Z,49.57
2019-01-25T06:41:05.410Z,48.30
2019-01-25T06:43:35.092Z,49.63
2019-01-25T06:46:05.356Z,50.53
2019-01-25T06:48:35.232Z,49.37
2019-01-25T06:51:05.633Z,49.10
2019-01-25T06:53:35.241Z,54.10
2019-01-25T06:56:05.011Z,49.10
2019-01-25T06:58:37.261Z,51.17
2019-01-25T07:01:14.715Z,52.10
2019-01-25T07:03:44.312Z,56.23
2019-01-25T07:06:14.045Z,50.13
2019-01-25T07:08:43.648Z,52.73
2019-01-25T07:11:13.473Z,56.13
2019-01-25T07:13:43.029Z,52.83
2019-01-25T07:16:12.668Z,53.07
2019-01-25T07:18:42.540Z,55.60
2019-01-25T07:21:12.425Z,50.37
2019-01-25T07:23:43.837Z,52.00
2019-01-25T07:26:13.573Z,54.87
2019-01-25T07:28:43.201Z,47.53
2019-01-25T07:31:13.208Z,47.33
2019-01-25T07:33:43.157Z,51.00
2019-01-25T07:36:12.866Z,47.83
2019-01-25T07:38:42.467Z,45.83
2019-01-25T07:41:12.279Z,50.20
2019-01-25T07:43:41.991Z,47.63
2019-01-25T07:46:11.722Z,51.93
2019-01-25T07:48:41.339Z,50.03
2019-01-25T07:51:10.957Z,53.70
2019-01-25T07:53:40.697Z,55.90
2019-01-25T07:56:12.309Z,49.03
2019-01-25T07:58:41.926Z,49.37
2019-01-25T08:01:11.674Z,49.67
2019-01-25T08:03:41.269Z,49.87
2019-01-25T08:06:12.189Z,49.67
2019-01-25T08:08:41.793Z,47.70
2019-01-25T08:11:11.461Z,54.53
2019-01-25T08:13:41.029Z,49.90
2019-01-25T08:16:10.665Z,56.43
2019-01-25T08:18:40.278Z,54.70
2019-01-25T08:21:10.209Z,52.20
2019-01-25T08:23:39.915Z,53.83
2019-01-25T08:26:09.550Z,53.30
2019-01-25T08:28:39.150Z,53.57
2019-01-25T08:31:08.778Z,52.83
2019-01-25T08:33:38.425Z,58.10
2019-01-25T08:36:08.092Z,59.40
2019-01-25T08:38:37.977Z,57.00
2019-01-25T08:41:07.741Z,55.43
2019-01-25T08:43:37.538Z,51.87
2019-01-25T08:46:07.261Z,62.00
2019-01-25T08:48:36.871Z,56.20
2019-01-25T08:51:06.837Z,51.47
2019-01-25T08:53:36.450Z,54.47
2019-01-25T08:56:06.254Z,52.40
2019-01-25T08:58:35.985Z,43.87
2019-01-25T09:01:06.011Z,46.40
2019-01-25T09:03:35.608Z,51.07
2019-01-25T09:06:05.382Z,48.07
2019-01-25T09:08:34.976Z,49.70
2019-01-25T09:11:04.705Z,49.93
2019-01-25T09:13:34.313Z,46.77
2019-01-25T09:16:04.212Z,52.03
2019-01-25T09:18:33.821Z,48.90
2019-01-25T09:21:03.734Z,48.57
2019-01-25T09:23:33.464Z,46.90
2019-01-25T09:26:03.169Z,53.50
2019-01-25T09:28:32.808Z,47.27
2019-01-25T09:31:02.583Z,55.00
2019-01-25T09:33:32.212Z,56.13
2019-01-25T09:36:01.886Z,49.57
2019-01-25T09:38:31.655Z,47.17
2019-01-25T09:41:01.262Z,50.60
2019-01-25T09:43:30.950Z,49.60
2019-01-25T09:46:00.508Z,51.90
2019-01-25T09:48:30.245Z,49.30
2019-01-25T09:50:59.859Z,51.17
2019-01-25T09:53:29.489Z,50.40
2019-01-25T09:55:59.088Z,47.90
2019-01-25T09:58:28.777Z,48.10
2019-01-25T10:01:04.452Z,50.83
2019-01-25T10:03:34.283Z,53.97
2019-01-25T10:06:04.065Z,47.00
2019-01-25T10:08:33.773Z,55.60
2019-01-25T10:11:03.748Z,48.50
2019-01-25T10:13:34.290Z,48.60
2019-01-25T10:16:04.469Z,49.30
2019-01-25T10:18:34.332Z,46.30
2019-01-25T10:21:03.941Z,48.43
2019-01-25T10:23:33.677Z,44.20
2019-01-25T10:26:03.497Z,44.43
2019-01-25T10:28:33.084Z,45.20
2019-01-25T10:31:03.120Z,46.03
2019-01-25T10:33:32.732Z,47.83
2019-01-25T10:36:02.425Z,41.40
2019-01-25T10:38:33.343Z,45.97
2019-01-25T10:41:04.388Z,42.97
2019-01-25T10:43:36.357Z,44.37
2019-01-25T10:46:06.673Z,44.67
2019-01-25T10:48:38.236Z,44.17
2019-01-25T10:51:10.763Z,37.90
2019-01-25T10:53:42.657Z,40.73
2019-01-25T10:56:13.797Z,37.90
2019-01-25T10:58:44.274Z,40.80
2019-01-25T11:01:15.740Z,43.20
2019-01-25T11:03:49.164Z,40.40
2019-01-25T11:06:19.081Z,44.73
2019-01-25T11:08:48.837Z,39.60
2019-01-25T11:11:20.526Z,42.23
2019-01-25T11:13:50.144Z,42.70
2019-01-25T11:16:19.748Z,35.80
2019-01-25T11:18:49.376Z,40.70
2019-01-25T11:21:19.087Z,41.90
2019-01-25T11:23:48.708Z,42.77
2019-01-25T11:26:18.318Z,39.57
2019-01-25T11:28:47.940Z,38.30
2019-01-25T11:31:18.047Z,42.20
2019-01-25T11:33:47.768Z,39.40
2019-01-25T11:36:17.372Z,37.80
2019-01-25T11:38:47.266Z,39.63
2019-01-25T11:41:16.869Z,44.67
2019-01-25T11:43:46.599Z,40.77
2019-01-25T11:46:16.273Z,39.77
2019-01-25T11:48:45.897Z,43.33
2019-01-25T11:51:15.605Z,40.57
2019-01-25T11:53:45.224Z,37.13
2019-01-25T11:56:15.049Z,43.27
2019-01-25T11:58:44.776Z,40.47
2019-01-25T12:01:14.384Z,40.13
2019-01-25T12:03:44.009Z,35.43
2019-01-25T12:06:13.710Z,39.53
2019-01-25T12:08:43.336Z,42.40
2019-01-25T12:11:12.941Z,43.27
2019-01-25T12:13:42.665Z,42.47
2019-01-25T12:16:12.357Z,41.93
2019-01-25T12:18:41.993Z,48.80
2019-01-25T12:21:11.648Z,42.50
2019-01-25T12:23:41.600Z,41.70
2019-01-25T12:26:11.205Z,42.63
2019-01-25T12:28:41.130Z,42.03
2019-01-25T12:31:11.033Z,36.87
2019-01-25T12:33:40.658Z,42.23
2019-01-25T12:36:10.925Z,36.45
2019-01-25T12:38:41.059Z,42.07
2019-01-25T12:41:10.757Z,36.87
2019-01-25T12:43:40.593Z,37.20
2019-01-25T12:46:10.288Z,37.23
2019-01-25T12:48:39.922Z,35.83
2019-01-25T12:51:12.920Z,37.70
2019-01-25T12:53:42.746Z,34.80
2019-01-25T12:56:12.520Z,37.53
2019-01-25T12:58:42.144Z,36.50
2019-01-25T13:01:12.413Z,35.20
2019-01-25T13:03:42.054Z,39.57
2019-01-25T13:06:11.792Z,56.80
2019-01-25T13:08:41.422Z,80.23
2019-01-25T13:11:11.184Z,34.07
2019-01-25T13:13:42.637Z,38.07
2019-01-25T13:16:12.269Z,38.40
2019-01-25T13:18:41.861Z,44.87
2019-01-25T13:21:11.547Z,33.57
2019-01-25T13:23:41.140Z,37.23
2019-01-25T13:26:11.061Z,40.70
2019-01-25T13:28:41.864Z,32.67
2019-01-25T13:31:11.590Z,44.37
2019-01-25T13:33:41.878Z,35.45
2019-01-25T13:36:12.924Z,33.28
2019-01-25T13:38:43.109Z,35.52
2019-01-25T13:41:12.737Z,33.47
2019-01-25T13:43:42.922Z,31.15
2019-01-25T13:46:13.130Z,33.35
2019-01-25T13:48:43.313Z,34.60
2019-01-25T13:51:13.753Z,31.02
2019-01-25T13:53:43.461Z,35.80
2019-01-25T13:56:13.095Z,30.93
2019-01-25T13:58:42.705Z,34.73
2019-01-25T14:01:12.925Z,38.38
2019-01-25T14:03:42.631Z,34.83
2019-01-25T14:06:12.321Z,33.53
2019-01-25T14:08:41.924Z,35.67
2019-01-25T14:11:12.132Z,33.13
2019-01-25T14:13:46.708Z,32.50
2019-01-25T14:16:13.744Z,34.00
2019-01-25T14:18:45.070Z,35.33
2019-01-25T14:21:14.785Z,33.57
2019-01-25T14:23:44.673Z,38.27
2019-01-25T14:26:14.393Z,34.87
2019-01-25T14:28:44.600Z,35.73
2019-01-25T14:31:14.820Z,37.78
2019-01-25T14:33:44.730Z,38.77
2019-01-25T14:36:15.038Z,38.08
2019-01-25T14:38:44.666Z,35.33
2019-01-25T14:41:14.345Z,36.27
2019-01-25T14:43:44.145Z,36.00
2019-01-25T14:46:13.868Z,35.67
2019-01-25T14:48:43.479Z,37.07
2019-01-25T14:51:13.487Z,41.43
2019-01-25T14:53:43.214Z,38.73
2019-01-25T14:56:13.306Z,37.83
2019-01-25T14:58:42.909Z,38.93
2019-01-25T15:01:12.638Z,34.73
2019-01-25T15:03:42.243Z,35.40
2019-01-25T15:06:12.171Z,40.33
2019-01-25T15:08:41.843Z,44.80
2019-01-25T15:11:11.468Z,46.60
2019-01-25T15:13:41.232Z,42.37
2019-01-25T15:16:10.953Z,39.83
2019-01-25T15:18:41.441Z,41.70
2019-01-25T15:21:11.290Z,43.20
2019-01-25T15:23:40.861Z,41.07
2019-01-25T15:26:10.793Z,42.30
2019-01-25T15:28:40.402Z,42.63
2019-01-25T15:31:10.025Z,42.40
2019-01-25T15:33:39.630Z,40.30
2019-01-25T15:36:10.069Z,40.78
2019-01-25T15:38:39.671Z,38.50
2019-01-25T15:41:09.505Z,40.13
2019-01-25T15:43:39.433Z,39.17
2019-01-25T15:46:09.049Z,40.50
2019-01-25T15:48:38.662Z,41.37
2019-01-25T15:51:08.386Z,39.33
2019-01-25T15:53:39.151Z,41.27
2019-01-25T15:56:09.304Z,39.35
2019-01-25T15:58:38.996Z,35.70
2019-01-25T16:01:08.697Z,36.47
2019-01-25T16:03:38.286Z,43.60
2019-01-25T16:06:08.088Z,38.93
2019-01-25T16:08:37.765Z,42.17
2019-01-25T16:11:07.949Z,47.83
2019-01-25T16:13:37.548Z,48.00
2019-01-25T16:16:07.280Z,58.70
2019-01-25T16:18:36.926Z,49.30
2019-01-25T16:21:07.112Z,46.33
2019-01-25T16:23:36.955Z,45.33
2019-01-25T16:26:06.565Z,54.33
2019-01-25T16:28:36.196Z,57.50
2019-01-25T16:31:05.873Z,47.23
2019-01-25T16:33:35.606Z,47.37
2019-01-25T16:36:05.691Z,101.57
2019-01-25T16:38:35.396Z,48.23
2019-01-25T16:41:05.065Z,50.00
2019-01-25T16:43:34.706Z,49.57
2019-01-25T16:46:04.654Z,45.87
2019-01-25T16:48:34.284Z,49.87
2019-01-25T16:51:04.218Z,47.73
2019-01-25T16:53:33.925Z,56.53
2019-01-25T16:56:03.601Z,46.40
2019-01-25T16:58:33.401Z,63.47
2019-01-25T17:01:03.117Z,64.53
2019-01-25T17:03:32.744Z,66.83
2019-01-25T17:06:02.370Z,75.83
2019-01-25T17:08:32.004Z,47.20
2019-01-25T17:11:01.608Z,55.30
2019-01-25T17:13:31.236Z,56.50
2019-01-25T17:16:00.950Z,52.37
2019-01-25T17:18:30.620Z,42.33
2019-01-25T17:21:00.352Z,40.00
2019-01-25T17:23:30.090Z,36.33
2019-01-25T17:25:59.816Z,39.90
2019-01-25T17:28:29.586Z,33.93
2019-01-25T17:30:59.266Z,33.47
2019-01-25T17:33:28.898Z,30.37
2019-01-25T17:35:58.739Z,33.27
2019-01-25T17:38:28.424Z,30.30
2019-01-25T17:40:58.133Z,30.20
2019-01-25T17:43:27.771Z,27.07
2019-01-25T17:45:57.377Z,24.23
2019-01-25T17:48:27.013Z,29.43
2019-01-25T17:50:57.623Z,27.13
2019-01-25T17:53:27.653Z,27.17
2019-01-25T17:55:57.356Z,26.53
2019-01-25T17:58:27.197Z,25.37
2019-01-25T18:00:57.872Z,26.43
2019-01-25T18:03:27.129Z,23.60
2019-01-25T18:05:56.427Z,28.50
2019-01-25T18:08:25.945Z,22.23
2019-01-25T18:10:55.186Z,26.73
2019-01-25T18:13:24.488Z,24.43
2019-01-25T18:15:53.744Z,24.47
2019-01-25T18:18:22.969Z,23.23
2019-01-25T18:20:52.354Z,25.33
2019-01-25T18:23:21.601Z,25.00
2019-01-25T18:25:51.170Z,26.83
2019-01-25T18:28:23.879Z,24.60
2019-01-25T18:30:56.426Z,24.50
2019-01-25T18:33:25.665Z,22.17
2019-01-25T18:35:54.926Z,22.53
2019-01-25T18:38:24.154Z,22.47
2019-01-25T18:40:53.417Z,23.03
2019-01-25T18:43:24.776Z,22.43
2019-01-25T18:45:54.348Z,23.73
2019-01-25T18:48:26.024Z,19.92
2019-01-25T18:50:56.349Z,23.47
2019-01-25T18:53:27.629Z,20.77
2019-01-25T18:55:57.516Z,24.07
2019-01-25T18:58:27.124Z,25.83
2019-01-25T19:00:56.772Z,21.90
2019-01-25T19:03:26.376Z,21.63
2019-01-25T19:05:57.012Z,21.53
2019-01-25T19:08:27.396Z,22.50
2019-01-25T19:10:57.350Z,24.60
2019-01-25T19:13:27.089Z,22.57
2019-01-25T19:15:56.752Z,20.87
2019-01-25T19:18:26.361Z,28.90
2019-01-25T19:20:55.993Z,19.43
2019-01-25T19:23:25.597Z,20.40
2019-01-25T19:25:55.241Z,19.93
2019-01-25T19:28:24.948Z,27.23
2019-01-25T19:30:54.584Z,17.37
2019-01-25T19:33:24.381Z,15.50
2019-01-25T19:35:54.008Z,16.50
2019-01-25T19:38:24.197Z,13.88
2019-01-25T19:40:53.895Z,13.83
2019-01-25T19:43:24.197Z,17.30
2019-01-25T19:45:54.197Z,11.67
2019-01-25T19:48:23.827Z,17.13
2019-01-25T19:50:54.542Z,11.80
2019-01-25T19:53:24.301Z,11.20
2019-01-25T19:55:53.996Z,8.87
2019-01-25T19:58:23.685Z,10.77
2019-01-25T20:00:59.415Z,9.27
2019-01-25T20:03:29.625Z,10.70
2019-01-25T20:05:59.390Z,9.43
2019-01-25T20:08:29.193Z,11.27
2019-01-25T20:10:58.823Z,9.37
2019-01-25T20:13:28.430Z,10.33
2019-01-25T20:15:58.149Z,11.53
2019-01-25T20:18:27.750Z,9.47
2019-01-25T20:20:57.893Z,9.13
2019-01-25T20:23:27.593Z,9.07
2019-01-25T20:25:57.223Z,10.93
2019-01-25T20:28:26.972Z,8.40
2019-01-25T20:30:56.606Z,9.13
2019-01-25T20:33:26.752Z,11.20
2019-01-25T20:35:56.440Z,9.20
2019-01-25T20:38:26.041Z,9.57
2019-01-25T20:40:55.661Z,11.90
2019-01-25T20:43:25.392Z,10.53
2019-01-25T20:45:56.129Z,9.17
2019-01-25T20:48:25.941Z,7.83
2019-01-25T20:50:55.548Z,7.37
2019-01-25T20:53:25.459Z,8.83
2019-01-25T20:55:55.180Z,6.70
2019-01-25T20:58:24.925Z,6.67
2019-01-25T21:00:54.598Z,6.27
2019-01-25T21:03:24.299Z,5.97
2019-01-25T21:05:53.897Z,6.73
2019-01-25T21:08:24.005Z,8.80
2019-01-25T21:10:53.604Z,7.57
2019-01-25T21:13:23.343Z,7.50
2019-01-25T21:15:52.994Z,6.10
2019-01-25T21:18:22.682Z,5.97
2019-01-25T21:20:54.077Z,6.20
2019-01-25T21:23:23.697Z,7.47
2019-01-25T21:25:53.362Z,6.43
2019-01-25T21:28:22.965Z,6.23
2019-01-25T21:30:53.561Z,5.73
2019-01-25T21:33:23.181Z,5.87
2019-01-25T21:35:52.772Z,5.07
2019-01-25T21:38:22.408Z,5.07
2019-01-25T21:40:52.123Z,5.80
2019-01-25T21:43:21.742Z,4.80
2019-01-25T21:45:51.337Z,4.57
2019-01-25T21:48:21.063Z,5.23
2019-01-25T21:50:50.658Z,5.17
2019-01-25T21:53:21.193Z,4.73
2019-01-25T21:55:51.400Z,4.17
2019-01-25T21:58:21.585Z,4.65
2019-01-25T22:00:51.859Z,4.73
2019-01-25T22:03:21.469Z,4.43
2019-01-25T22:05:51.201Z,4.93
2019-01-25T22:08:20.823Z,4.40
2019-01-25T22:10:50.488Z,4.30
2019-01-25T22:13:20.172Z,4.67
2019-01-25T22:15:51.059Z,4.60
2019-01-25T22:18:21.103Z,5.10
2019-01-25T22:20:50.705Z,6.63
2019-01-25T22:23:20.486Z,4.93
2019-01-25T22:25:50.186Z,5.90
2019-01-25T22:28:20.369Z,6.50
2019-01-25T22:30:50.142Z,4.87
2019-01-25T22:33:20.337Z,5.03
2019-01-25T22:35:51.606Z,5.20
2019-01-25T22:38:21.802Z,5.60
2019-01-25T22:40:51.388Z,5.83
2019-01-25T22:43:21.572Z,5.65
2019-01-25T22:45:58.347Z,4.47
2019-01-25T22:48:22.405Z,4.73
2019-01-25T22:50:52.050Z,5.17
2019-01-25T22:53:21.797Z,7.37
2019-01-25T22:55:51.392Z,4.23
2019-01-25T22:58:21.013Z,6.13
2019-01-25T23:00:57.921Z,4.87
2019-01-25T23:03:33.321Z,7.17
2019-01-25T23:06:14.949Z,6.17
2019-01-25T23:08:46.152Z,7.77
2019-01-25T23:11:15.849Z,6.00
2019-01-25T23:13:45.473Z,6.03
2019-01-25T23:16:15.139Z,5.43
2019-01-25T23:18:44.959Z,6.77
2019-01-25T23:21:14.926Z,6.77
2019-01-25T23:23:44.528Z,8.73
2019-01-25T23:26:14.153Z,5.97
2019-01-25T23:28:43.780Z,6.93
2019-01-25T23:31:13.494Z,7.50
2019-01-25T23:33:43.661Z,8.10
2019-01-25T23:36:13.285Z,6.93
2019-01-25T23:38:42.944Z,7.40
2019-01-25T23:41:12.579Z,6.60
2019-01-25T23:43:42.773Z,8.08
2019-01-25T23:46:13.969Z,8.43
2019-01-25T23:48:43.749Z,8.20
2019-01-25T23:51:13.450Z,6.53
2019-01-25T23:53:43.605Z,7.30
2019-01-25T23:56:13.786Z,7.35
2019-01-25T23:58:43.376Z,7.80
